sensor_id;sensor_type;location;lat;lon;timestamp;P1;durP1;ratioP1;P2;durP2;ratioP2
62861;SDS011;48953;53.110;5.592;2022-09-12T00:01:21;19.02;;;13.05;;
62861;SDS011;48953;53.110;5.592;2022-09-12T00:03:50;16.50;;;11.70;;
62861;SDS011;48953;53.110;5.592;2022-09-12T00:06:29;15.80;;;11.77;;
62861;SDS011;48953;53.110;5.592;2022-09-12T00:08:57;15.38;;;11.95;;
62861;SDS011;48953;53.110;5.592;2022-09-12T00:11:24;15.73;;;12.55;;
62861;SDS011;48953;53.110;5.592;2022-09-12T00:13:50;18.90;;;13.80;;
62861;SDS011;48953;53.110;5.592;2022-09-12T00:16:20;18.20;;;12.20;;
62861;SDS011;48953;53.110;5.592;2022-09-12T00:18:47;18.98;;;13.75;;
62861;SDS011;48953;53.110;5.592;2022-09-12T00:21:14;22.33;;;15.07;;
62861;SDS011;48953;53.110;5.592;2022-09-12T00:23:40;21.48;;;14.32;;
62861;SDS011;48953;53.110;5.592;2022-09-12T00:26:06;21.17;;;15.45;;
62861;SDS011;48953;53.110;5.592;2022-09-12T00:28:33;21.10;;;14.88;;
62861;SDS011;48953;53.110;5.592;2022-09-12T00:31:02;20.17;;;13.52;;
62861;SDS011;48953;53.110;5.592;2022-09-12T00:33:31;19.67;;;14.48;;
62861;SDS011;48953;53.110;5.592;2022-09-12T00:35:58;20.77;;;15.27;;
62861;SDS011;48953;53.110;5.592;2022-09-12T00:38:26;22.67;;;15.70;;
62861;SDS011;48953;53.110;5.592;2022-09-12T00:40:51;23.73;;;15.57;;
62861;SDS011;48953;53.110;5.592;2022-09-12T00:45:58;25.77;;;15.73;;
62861;SDS011;48953;53.110;5.592;2022-09-12T00:48:36;27.33;;;16.00;;
62861;SDS011;48953;53.110;5.592;2022-09-12T00:51:06;25.92;;;16.27;;
62861;SDS011;48953;53.110;5.592;2022-09-12T00:53:32;21.85;;;15.02;;
62861;SDS011;48953;53.110;5.592;2022-09-12T00:55:58;24.92;;;15.98;;
62861;SDS011;48953;53.110;5.592;2022-09-12T00:58:25;24.25;;;16.02;;
62861;SDS011;48953;53.110;5.592;2022-09-12T01:00:54;24.60;;;16.38;;
62861;SDS011;48953;53.110;5.592;2022-09-12T01:03:21;24.42;;;15.63;;
62861;SDS011;48953;53.110;5.592;2022-09-12T01:05:58;26.20;;;15.48;;
62861;SDS011;48953;53.110;5.592;2022-09-12T01:08:31;23.02;;;14.50;;
62861;SDS011;48953;53.110;5.592;2022-09-12T01:11:01;24.08;;;15.93;;
62861;SDS011;48953;53.110;5.592;2022-09-12T01:13:27;23.90;;;15.05;;
62861;SDS011;48953;53.110;5.592;2022-09-12T01:15:53;26.00;;;16.30;;
62861;SDS011;48953;53.110;5.592;2022-09-12T01:18:31;25.67;;;15.52;;
62861;SDS011;48953;53.110;5.592;2022-09-12T01:27:32;26.63;;;15.55;;
62861;SDS011;48953;53.110;5.592;2022-09-12T01:32:59;24.17;;;15.80;;
62861;SDS011;48953;53.110;5.592;2022-09-12T01:46:58;26.92;;;16.67;;
62861;SDS011;48953;53.110;5.592;2022-09-12T01:49:35;27.17;;;16.67;;
62861;SDS011;48953;53.110;5.592;2022-09-12T01:55:09;22.48;;;15.10;;
62861;SDS011;48953;53.110;5.592;2022-09-12T01:57:38;23.58;;;15.73;;
62861;SDS011;48953;53.110;5.592;2022-09-12T02:00:09;23.13;;;15.93;;
62861;SDS011;48953;53.110;5.592;2022-09-12T02:02:37;26.05;;;16.77;;
62861;SDS011;48953;53.110;5.592;2022-09-12T02:05:24;23.65;;;15.35;;
62861;SDS011;48953;53.110;5.592;2022-09-12T02:08:01;25.05;;;15.80;;
62861;SDS011;48953;53.110;5.592;2022-09-12T02:10:35;26.30;;;15.63;;
62861;SDS011;48953;53.110;5.592;2022-09-12T02:13:12;24.20;;;16.00;;
62861;SDS011;48953;53.110;5.592;2022-09-12T02:15:49;26.63;;;16.83;;
62861;SDS011;48953;53.110;5.592;2022-09-12T02:18:18;32.00;;;17.75;;
62861;SDS011;48953;53.110;5.592;2022-09-12T02:20:45;26.48;;;16.63;;
62861;SDS011;48953;53.110;5.592;2022-09-12T02:23:14;27.88;;;17.33;;
62861;SDS011;48953;53.110;5.592;2022-09-12T02:25:45;28.90;;;16.83;;
62861;SDS011;48953;53.110;5.592;2022-09-12T02:28:14;29.45;;;18.13;;
62861;SDS011;48953;53.110;5.592;2022-09-12T02:30:55;31.25;;;17.60;;
62861;SDS011;48953;53.110;5.592;2022-09-12T02:33:31;30.13;;;18.10;;
62861;SDS011;48953;53.110;5.592;2022-09-12T02:36:28;27.90;;;17.10;;
62861;SDS011;48953;53.110;5.592;2022-09-12T02:39:00;33.65;;;18.45;;
62861;SDS011;48953;53.110;5.592;2022-09-12T02:41:26;31.38;;;17.58;;
62861;SDS011;48953;53.110;5.592;2022-09-12T02:43:52;29.55;;;17.70;;
62861;SDS011;48953;53.110;5.592;2022-09-12T02:46:21;32.95;;;17.95;;
62861;SDS011;48953;53.110;5.592;2022-09-12T02:48:50;31.83;;;18.25;;
62861;SDS011;48953;53.110;5.592;2022-09-12T02:51:17;29.92;;;18.23;;
62861;SDS011;48953;53.110;5.592;2022-09-12T02:53:42;28.75;;;18.10;;
62861;SDS011;48953;53.110;5.592;2022-09-12T02:56:10;28.73;;;17.20;;
62861;SDS011;48953;53.110;5.592;2022-09-12T02:58:41;34.17;;;18.60;;
62861;SDS011;48953;53.110;5.592;2022-09-12T03:09:27;29.88;;;18.55;;
62861;SDS011;48953;53.110;5.592;2022-09-12T03:14:48;30.50;;;18.40;;
62861;SDS011;48953;53.110;5.592;2022-09-12T03:20:31;35.95;;;19.35;;
62861;SDS011;48953;53.110;5.592;2022-09-12T03:23:11;37.03;;;19.15;;
62861;SDS011;48953;53.110;5.592;2022-09-12T03:25:43;33.28;;;18.45;;
62861;SDS011;48953;53.110;5.592;2022-09-12T03:28:14;34.60;;;18.90;;
62861;SDS011;48953;53.110;5.592;2022-09-12T03:30:42;38.67;;;20.98;;
62861;SDS011;48953;53.110;5.592;2022-09-12T03:33:11;44.10;;;21.35;;
62861;SDS011;48953;53.110;5.592;2022-09-12T03:35:37;34.05;;;19.10;;
62861;SDS011;48953;53.110;5.592;2022-09-12T03:38:03;39.80;;;20.42;;
62861;SDS011;48953;53.110;5.592;2022-09-12T03:40:31;44.10;;;22.00;;
62861;SDS011;48953;53.110;5.592;2022-09-12T03:42:57;49.78;;;23.70;;
62861;SDS011;48953;53.110;5.592;2022-09-12T03:45:23;43.17;;;21.15;;
62861;SDS011;48953;53.110;5.592;2022-09-12T03:47:49;49.45;;;22.70;;
62861;SDS011;48953;53.110;5.592;2022-09-12T03:50:14;47.30;;;21.90;;
62861;SDS011;48953;53.110;5.592;2022-09-12T03:52:40;44.00;;;22.13;;
62861;SDS011;48953;53.110;5.592;2022-09-12T03:55:05;50.22;;;23.23;;
62861;SDS011;48953;53.110;5.592;2022-09-12T03:57:31;43.58;;;21.27;;
62861;SDS011;48953;53.110;5.592;2022-09-12T03:59:57;42.83;;;22.20;;
62861;SDS011;48953;53.110;5.592;2022-09-12T04:02:22;42.15;;;21.20;;
62861;SDS011;48953;53.110;5.592;2022-09-12T04:04:48;42.70;;;22.00;;
62861;SDS011;48953;53.110;5.592;2022-09-12T04:07:15;41.17;;;21.55;;
62861;SDS011;48953;53.110;5.592;2022-09-12T04:09:40;44.50;;;22.55;;
62861;SDS011;48953;53.110;5.592;2022-09-12T04:12:06;45.50;;;22.13;;
62861;SDS011;48953;53.110;5.592;2022-09-12T04:14:32;38.80;;;21.77;;
62861;SDS011;48953;53.110;5.592;2022-09-12T04:16:57;43.58;;;22.05;;
62861;SDS011;48953;53.110;5.592;2022-09-12T04:19:24;44.88;;;22.90;;
62861;SDS011;48953;53.110;5.592;2022-09-12T04:21:50;45.63;;;23.60;;
62861;SDS011;48953;53.110;5.592;2022-09-12T04:24:16;49.30;;;24.40;;
62861;SDS011;48953;53.110;5.592;2022-09-12T04:26:41;50.83;;;24.25;;
62861;SDS011;48953;53.110;5.592;2022-09-12T04:29:08;47.35;;;24.48;;
62861;SDS011;48953;53.110;5.592;2022-09-12T04:31:36;45.28;;;23.30;;
62861;SDS011;48953;53.110;5.592;2022-09-12T04:34:02;48.10;;;24.73;;
62861;SDS011;48953;53.110;5.592;2022-09-12T04:36:29;49.22;;;24.23;;
62861;SDS011;48953;53.110;5.592;2022-09-12T04:38:55;50.65;;;25.02;;
62861;SDS011;48953;53.110;5.592;2022-09-12T04:41:22;49.00;;;25.05;;
62861;SDS011;48953;53.110;5.592;2022-09-12T04:46:28;51.00;;;24.80;;
62861;SDS011;48953;53.110;5.592;2022-09-12T04:48:55;46.97;;;23.65;;
62861;SDS011;48953;53.110;5.592;2022-09-12T04:51:25;45.83;;;23.50;;
62861;SDS011;48953;53.110;5.592;2022-09-12T04:53:53;52.70;;;24.73;;
62861;SDS011;48953;53.110;5.592;2022-09-12T04:56:21;44.85;;;24.02;;
62861;SDS011;48953;53.110;5.592;2022-09-12T04:58:47;48.25;;;24.63;;
62861;SDS011;48953;53.110;5.592;2022-09-12T05:01:14;49.33;;;24.10;;
62861;SDS011;48953;53.110;5.592;2022-09-12T05:03:42;51.53;;;24.33;;
62861;SDS011;48953;53.110;5.592;2022-09-12T05:06:09;46.28;;;25.02;;
62861;SDS011;48953;53.110;5.592;2022-09-12T05:08:36;44.53;;;24.50;;
62861;SDS011;48953;53.110;5.592;2022-09-12T05:11:03;45.53;;;24.15;;
62861;SDS011;48953;53.110;5.592;2022-09-12T05:13:31;44.70;;;24.02;;
62861;SDS011;48953;53.110;5.592;2022-09-12T05:15:58;41.80;;;23.00;;
62861;SDS011;48953;53.110;5.592;2022-09-12T05:18:25;38.30;;;22.60;;
62861;SDS011;48953;53.110;5.592;2022-09-12T05:20:52;42.38;;;22.92;;
62861;SDS011;48953;53.110;5.592;2022-09-12T05:23:18;36.05;;;21.73;;
62861;SDS011;48953;53.110;5.592;2022-09-12T05:25:50;37.83;;;22.52;;
62861;SDS011;48953;53.110;5.592;2022-09-12T05:28:17;40.42;;;22.65;;
62861;SDS011;48953;53.110;5.592;2022-09-12T05:30:44;36.78;;;21.10;;
62861;SDS011;48953;53.110;5.592;2022-09-12T05:33:10;38.63;;;22.38;;
62861;SDS011;48953;53.110;5.592;2022-09-12T05:35:36;36.30;;;21.73;;
62861;SDS011;48953;53.110;5.592;2022-09-12T05:38:05;34.75;;;20.70;;
62861;SDS011;48953;53.110;5.592;2022-09-12T05:40:32;37.55;;;20.77;;
62861;SDS011;48953;53.110;5.592;2022-09-12T05:42:58;38.17;;;21.20;;
62861;SDS011;48953;53.110;5.592;2022-09-12T05:45:24;34.28;;;20.90;;
62861;SDS011;48953;53.110;5.592;2022-09-12T05:47:51;37.58;;;20.63;;
62861;SDS011;48953;53.110;5.592;2022-09-12T05:50:18;32.45;;;20.60;;
62861;SDS011;48953;53.110;5.592;2022-09-12T05:52:43;32.42;;;20.02;;
62861;SDS011;48953;53.110;5.592;2022-09-12T05:55:09;31.92;;;20.70;;
62861;SDS011;48953;53.110;5.592;2022-09-12T05:57:35;34.20;;;19.45;;
62861;SDS011;48953;53.110;5.592;2022-09-12T06:00:01;37.25;;;20.40;;
62861;SDS011;48953;53.110;5.592;2022-09-12T06:02:28;33.72;;;19.83;;
62861;SDS011;48953;53.110;5.592;2022-09-12T06:04:53;36.50;;;19.77;;
62861;SDS011;48953;53.110;5.592;2022-09-12T06:07:19;31.60;;;19.25;;
62861;SDS011;48953;53.110;5.592;2022-09-12T06:09:44;30.50;;;19.60;;
62861;SDS011;48953;53.110;5.592;2022-09-12T06:12:10;36.92;;;20.30;;
62861;SDS011;48953;53.110;5.592;2022-09-12T06:14:35;32.85;;;20.42;;
62861;SDS011;48953;53.110;5.592;2022-09-12T06:17:01;31.90;;;19.67;;
62861;SDS011;48953;53.110;5.592;2022-09-12T06:19:26;30.23;;;20.13;;
62861;SDS011;48953;53.110;5.592;2022-09-12T06:21:52;32.17;;;19.15;;
62861;SDS011;48953;53.110;5.592;2022-09-12T06:24:18;30.17;;;19.10;;
62861;SDS011;48953;53.110;5.592;2022-09-12T06:26:45;32.45;;;20.30;;
62861;SDS011;48953;53.110;5.592;2022-09-12T06:29:12;30.90;;;19.95;;
62861;SDS011;48953;53.110;5.592;2022-09-12T06:31:38;30.65;;;19.90;;
62861;SDS011;48953;53.110;5.592;2022-09-12T06:34:07;30.77;;;19.45;;
62861;SDS011;48953;53.110;5.592;2022-09-12T06:36:36;31.33;;;19.83;;
62861;SDS011;48953;53.110;5.592;2022-09-12T06:39:05;29.25;;;18.95;;
62861;SDS011;48953;53.110;5.592;2022-09-12T06:41:35;31.38;;;19.30;;
62861;SDS011;48953;53.110;5.592;2022-09-12T06:44:01;32.95;;;19.85;;
62861;SDS011;48953;53.110;5.592;2022-09-12T06:46:27;31.75;;;20.67;;
62861;SDS011;48953;53.110;5.592;2022-09-12T06:48:57;28.92;;;19.30;;
62861;SDS011;48953;53.110;5.592;2022-09-12T06:51:25;26.55;;;18.15;;
62861;SDS011;48953;53.110;5.592;2022-09-12T06:53:53;30.63;;;19.27;;
62861;SDS011;48953;53.110;5.592;2022-09-12T06:56:21;30.42;;;18.92;;
62861;SDS011;48953;53.110;5.592;2022-09-12T06:58:50;28.23;;;18.60;;
62861;SDS011;48953;53.110;5.592;2022-09-12T07:01:18;28.33;;;19.23;;
62861;SDS011;48953;53.110;5.592;2022-09-12T07:03:47;26.25;;;17.63;;
62861;SDS011;48953;53.110;5.592;2022-09-12T07:06:15;27.48;;;17.33;;
62861;SDS011;48953;53.110;5.592;2022-09-12T07:08:42;23.63;;;17.38;;
62861;SDS011;48953;53.110;5.592;2022-09-12T07:11:09;27.05;;;18.20;;
62861;SDS011;48953;53.110;5.592;2022-09-12T07:13:38;25.88;;;17.67;;
62861;SDS011;48953;53.110;5.592;2022-09-12T07:16:05;25.55;;;17.15;;
62861;SDS011;48953;53.110;5.592;2022-09-12T07:18:34;26.23;;;17.48;;
62861;SDS011;48953;53.110;5.592;2022-09-12T07:21:02;25.10;;;16.90;;
62861;SDS011;48953;53.110;5.592;2022-09-12T07:23:30;27.13;;;16.88;;
62861;SDS011;48953;53.110;5.592;2022-09-12T07:25:56;24.77;;;16.38;;
62861;SDS011;48953;53.110;5.592;2022-09-12T07:28:23;24.35;;;17.25;;
62861;SDS011;48953;53.110;5.592;2022-09-12T07:30:50;25.05;;;17.40;;
62861;SDS011;48953;53.110;5.592;2022-09-12T07:33:18;26.92;;;17.45;;
62861;SDS011;48953;53.110;5.592;2022-09-12T07:35:48;23.33;;;16.45;;
62861;SDS011;48953;53.110;5.592;2022-09-12T07:38:14;24.38;;;16.58;;
62861;SDS011;48953;53.110;5.592;2022-09-12T07:40:41;23.95;;;16.65;;
62861;SDS011;48953;53.110;5.592;2022-09-12T07:43:06;24.00;;;16.63;;
62861;SDS011;48953;53.110;5.592;2022-09-12T07:45:32;23.63;;;17.00;;
62861;SDS011;48953;53.110;5.592;2022-09-12T07:47:58;26.77;;;17.10;;
62861;SDS011;48953;53.110;5.592;2022-09-12T07:50:24;24.95;;;17.23;;
62861;SDS011;48953;53.110;5.592;2022-09-12T07:52:49;24.70;;;17.23;;
62861;SDS011;48953;53.110;5.592;2022-09-12T07:55:18;23.60;;;17.77;;
62861;SDS011;48953;53.110;5.592;2022-09-12T07:57:44;27.88;;;18.33;;
62861;SDS011;48953;53.110;5.592;2022-09-12T08:00:13;25.17;;;17.43;;
62861;SDS011;48953;53.110;5.592;2022-09-12T08:02:39;24.55;;;17.15;;
62861;SDS011;48953;53.110;5.592;2022-09-12T08:05:05;24.85;;;17.13;;
62861;SDS011;48953;53.110;5.592;2022-09-12T08:07:31;25.58;;;18.10;;
62861;SDS011;48953;53.110;5.592;2022-09-12T08:09:58;23.55;;;17.48;;
62861;SDS011;48953;53.110;5.592;2022-09-12T08:12:24;27.90;;;18.65;;
62861;SDS011;48953;53.110;5.592;2022-09-12T08:14:51;29.38;;;18.90;;
62861;SDS011;48953;53.110;5.592;2022-09-12T08:17:17;28.52;;;18.80;;
62861;SDS011;48953;53.110;5.592;2022-09-12T08:19:43;25.85;;;17.77;;
62861;SDS011;48953;53.110;5.592;2022-09-12T08:22:09;26.30;;;18.17;;
62861;SDS011;48953;53.110;5.592;2022-09-12T08:24:35;26.52;;;18.77;;
62861;SDS011;48953;53.110;5.592;2022-09-12T08:27:01;26.38;;;18.88;;
62861;SDS011;48953;53.110;5.592;2022-09-12T08:29:26;26.80;;;19.15;;
62861;SDS011;48953;53.110;5.592;2022-09-12T08:31:52;26.65;;;18.65;;
62861;SDS011;48953;53.110;5.592;2022-09-12T08:34:18;27.20;;;18.77;;
62861;SDS011;48953;53.110;5.592;2022-09-12T08:36:46;27.65;;;18.27;;
62861;SDS011;48953;53.110;5.592;2022-09-12T08:39:12;26.70;;;18.02;;
62861;SDS011;48953;53.110;5.592;2022-09-12T08:46:49;23.92;;;17.10;;
62861;SDS011;48953;53.110;5.592;2022-09-12T08:49:40;25.55;;;17.60;;
62861;SDS011;48953;53.110;5.592;2022-09-12T08:52:27;24.88;;;17.50;;
62861;SDS011;48953;53.110;5.592;2022-09-12T08:54:59;24.40;;;17.52;;
62861;SDS011;48953;53.110;5.592;2022-09-12T08:57:26;25.20;;;18.02;;
62861;SDS011;48953;53.110;5.592;2022-09-12T08:59:52;26.45;;;18.05;;
62861;SDS011;48953;53.110;5.592;2022-09-12T09:05:16;24.02;;;16.80;;
62861;SDS011;48953;53.110;5.592;2022-09-12T09:18:50;23.77;;;16.08;;
62861;SDS011;48953;53.110;5.592;2022-09-12T09:23:49;23.40;;;17.67;;
62861;SDS011;48953;53.110;5.592;2022-09-12T09:26:32;22.65;;;17.00;;
62861;SDS011;48953;53.110;5.592;2022-09-12T09:29:15;25.13;;;14.63;;
62861;SDS011;48953;53.110;5.592;2022-09-12T09:34:14;22.48;;;16.48;;
62861;SDS011;48953;53.110;5.592;2022-09-12T09:44:48;15.52;;;12.60;;
62861;SDS011;48953;53.110;5.592;2022-09-12T09:49:43;16.15;;;11.95;;
62861;SDS011;48953;53.110;5.592;2022-09-12T09:52:11;13.48;;;10.98;;
62861;SDS011;48953;53.110;5.592;2022-09-12T09:54:47;12.75;;;10.40;;
62861;SDS011;48953;53.110;5.592;2022-09-12T10:03:04;10.77;;;9.55;;
62861;SDS011;48953;53.110;5.592;2022-09-12T10:05:51;10.98;;;9.68;;
62861;SDS011;48953;53.110;5.592;2022-09-12T10:08:25;9.75;;;7.80;;
62861;SDS011;48953;53.110;5.592;2022-09-12T10:10:54;10.50;;;7.78;;
62861;SDS011;48953;53.110;5.592;2022-09-12T10:13:40;13.15;;;7.72;;
62861;SDS011;48953;53.110;5.592;2022-09-12T10:16:27;9.25;;;8.25;;
62861;SDS011;48953;53.110;5.592;2022-09-12T10:18:55;10.18;;;9.00;;
62861;SDS011;48953;53.110;5.592;2022-09-12T10:26:30;13.13;;;10.85;;
62861;SDS011;48953;53.110;5.592;2022-09-12T10:31:41;11.27;;;10.00;;
62861;SDS011;48953;53.110;5.592;2022-09-12T10:34:20;14.23;;;10.70;;
62861;SDS011;48953;53.110;5.592;2022-09-12T10:36:53;13.10;;;10.98;;
62861;SDS011;48953;53.110;5.592;2022-09-12T10:39:24;15.40;;;11.75;;
62861;SDS011;48953;53.110;5.592;2022-09-12T10:41:50;12.75;;;10.55;;
62861;SDS011;48953;53.110;5.592;2022-09-12T10:44:17;13.60;;;11.45;;
62861;SDS011;48953;53.110;5.592;2022-09-12T10:46:51;12.32;;;10.63;;
62861;SDS011;48953;53.110;5.592;2022-09-12T10:49:19;14.13;;;10.77;;
62861;SDS011;48953;53.110;5.592;2022-09-12T10:51:47;11.68;;;9.63;;
62861;SDS011;48953;53.110;5.592;2022-09-12T10:54:15;12.18;;;9.95;;
62861;SDS011;48953;53.110;5.592;2022-09-12T10:56:50;13.35;;;11.40;;
62861;SDS011;48953;53.110;5.592;2022-09-12T11:07:46;10.73;;;8.20;;
62861;SDS011;48953;53.110;5.592;2022-09-12T11:11:04;11.30;;;9.10;;
62861;SDS011;48953;53.110;5.592;2022-09-12T11:16:03;11.10;;;8.38;;
62861;SDS011;48953;53.110;5.592;2022-09-12T11:26:56;14.07;;;10.68;;
62861;SDS011;48953;53.110;5.592;2022-09-12T11:29:47;12.50;;;10.20;;
62861;SDS011;48953;53.110;5.592;2022-09-12T11:35:32;11.38;;;9.30;;
62861;SDS011;48953;53.110;5.592;2022-09-12T11:41:14;11.65;;;9.35;;
62861;SDS011;48953;53.110;5.592;2022-09-12T11:46:06;14.60;;;9.57;;
62861;SDS011;48953;53.110;5.592;2022-09-12T11:51:14;10.85;;;8.85;;
62861;SDS011;48953;53.110;5.592;2022-09-12T11:53:52;10.00;;;8.32;;
62861;SDS011;48953;53.110;5.592;2022-09-12T11:56:27;9.75;;;8.00;;
62861;SDS011;48953;53.110;5.592;2022-09-12T11:58:57;8.77;;;7.25;;
62861;SDS011;48953;53.110;5.592;2022-09-12T12:01:31;9.02;;;8.13;;
62861;SDS011;48953;53.110;5.592;2022-09-12T12:04:05;9.98;;;8.25;;
62861;SDS011;48953;53.110;5.592;2022-09-12T12:06:48;8.63;;;7.32;;
62861;SDS011;48953;53.110;5.592;2022-09-12T12:09:20;11.00;;;7.90;;
62861;SDS011;48953;53.110;5.592;2022-09-12T12:11:52;8.02;;;7.10;;
62861;SDS011;48953;53.110;5.592;2022-09-12T12:14:23;8.20;;;7.13;;
62861;SDS011;48953;53.110;5.592;2022-09-12T12:17:20;10.50;;;7.35;;
62861;SDS011;48953;53.110;5.592;2022-09-12T12:19:58;9.15;;;7.10;;
62861;SDS011;48953;53.110;5.592;2022-09-12T12:22:26;9.43;;;7.55;;
62861;SDS011;48953;53.110;5.592;2022-09-12T12:25:37;10.55;;;8.00;;
62861;SDS011;48953;53.110;5.592;2022-09-12T12:27:48;10.73;;;8.68;;
62861;SDS011;48953;53.110;5.592;2022-09-12T12:33:00;7.70;;;6.45;;
62861;SDS011;48953;53.110;5.592;2022-09-12T12:38:02;7.03;;;6.32;;
62861;SDS011;48953;53.110;5.592;2022-09-12T12:40:29;7.97;;;6.75;;
62861;SDS011;48953;53.110;5.592;2022-09-12T12:42:59;8.90;;;7.22;;
62861;SDS011;48953;53.110;5.592;2022-09-12T12:50:27;9.63;;;6.45;;
62861;SDS011;48953;53.110;5.592;2022-09-12T12:52:55;8.20;;;6.40;;
62861;SDS011;48953;53.110;5.592;2022-09-12T12:57:58;6.93;;;5.68;;
62861;SDS011;48953;53.110;5.592;2022-09-12T13:00:27;9.40;;;6.05;;
62861;SDS011;48953;53.110;5.592;2022-09-12T13:05:27;10.07;;;6.73;;
62861;SDS011;48953;53.110;5.592;2022-09-12T13:08:04;8.63;;;6.85;;
62861;SDS011;48953;53.110;5.592;2022-09-12T13:10:49;8.25;;;6.38;;
62861;SDS011;48953;53.110;5.592;2022-09-12T13:13:23;7.40;;;6.13;;
62861;SDS011;48953;53.110;5.592;2022-09-12T13:16:04;9.65;;;7.70;;
62861;SDS011;48953;53.110;5.592;2022-09-12T13:23:33;9.10;;;7.78;;
62861;SDS011;48953;53.110;5.592;2022-09-12T13:25:59;11.02;;;9.60;;
62861;SDS011;48953;53.110;5.592;2022-09-12T13:28:26;12.05;;;8.65;;
62861;SDS011;48953;53.110;5.592;2022-09-12T13:31:10;11.13;;;8.77;;
62861;SDS011;48953;53.110;5.592;2022-09-12T13:33:48;12.02;;;8.65;;
62861;SDS011;48953;53.110;5.592;2022-09-12T13:47:17;10.60;;;8.85;;
62861;SDS011;48953;53.110;5.592;2022-09-12T13:50:03;12.68;;;9.73;;
62861;SDS011;48953;53.110;5.592;2022-09-12T13:52:31;12.40;;;9.67;;
62861;SDS011;48953;53.110;5.592;2022-09-12T13:54:59;10.43;;;8.77;;
62861;SDS011;48953;53.110;5.592;2022-09-12T13:57:31;12.13;;;9.45;;
62861;SDS011;48953;53.110;5.592;2022-09-12T14:00:12;12.45;;;9.15;;
62861;SDS011;48953;53.110;5.592;2022-09-12T14:02:43;12.43;;;8.52;;
62861;SDS011;48953;53.110;5.592;2022-09-12T14:07:48;11.77;;;9.10;;
62861;SDS011;48953;53.110;5.592;2022-09-12T14:10:21;11.45;;;9.02;;
62861;SDS011;48953;53.110;5.592;2022-09-12T14:12:54;14.60;;;9.27;;
62861;SDS011;48953;53.110;5.592;2022-09-12T14:15:22;13.65;;;8.55;;
62861;SDS011;48953;53.110;5.592;2022-09-12T14:17:52;8.55;;;7.20;;
62861;SDS011;48953;53.110;5.592;2022-09-12T14:20:20;9.70;;;7.90;;
62861;SDS011;48953;53.110;5.592;2022-09-12T14:22:47;8.52;;;7.63;;
62861;SDS011;48953;53.110;5.592;2022-09-12T14:25:14;10.27;;;8.38;;
62861;SDS011;48953;53.110;5.592;2022-09-12T14:27:46;9.98;;;7.45;;
62861;SDS011;48953;53.110;5.592;2022-09-12T14:30:21;11.30;;;8.30;;
62861;SDS011;48953;53.110;5.592;2022-09-12T14:35:33;10.35;;;7.78;;
62861;SDS011;48953;53.110;5.592;2022-09-12T14:38:07;9.95;;;7.95;;
62861;SDS011;48953;53.110;5.592;2022-09-12T14:40:42;8.43;;;6.95;;
62861;SDS011;48953;53.110;5.592;2022-09-12T14:43:17;9.75;;;7.68;;
62861;SDS011;48953;53.110;5.592;2022-09-12T14:45:53;10.80;;;7.35;;
62861;SDS011;48953;53.110;5.592;2022-09-12T14:48:20;8.37;;;6.53;;
62861;SDS011;48953;53.110;5.592;2022-09-12T14:50:49;6.40;;;4.93;;
62861;SDS011;48953;53.110;5.592;2022-09-12T14:55:48;6.93;;;5.53;;
62861;SDS011;48953;53.110;5.592;2022-09-12T14:58:34;9.43;;;5.90;;
62861;SDS011;48953;53.110;5.592;2022-09-12T15:01:01;7.43;;;5.95;;
62861;SDS011;48953;53.110;5.592;2022-09-12T15:03:50;6.18;;;5.57;;
62861;SDS011;48953;53.110;5.592;2022-09-12T15:08:47;7.97;;;5.53;;
62861;SDS011;48953;53.110;5.592;2022-09-12T15:11:13;5.97;;;5.38;;
62861;SDS011;48953;53.110;5.592;2022-09-12T15:13:39;6.85;;;6.18;;
62861;SDS011;48953;53.110;5.592;2022-09-12T15:16:09;6.68;;;6.03;;
62861;SDS011;48953;53.110;5.592;2022-09-12T15:18:35;6.55;;;5.82;;
62861;SDS011;48953;53.110;5.592;2022-09-12T15:21:02;6.47;;;5.28;;
62861;SDS011;48953;53.110;5.592;2022-09-12T15:23:36;5.90;;;5.30;;
62861;SDS011;48953;53.110;5.592;2022-09-12T15:26:12;6.15;;;5.38;;
62861;SDS011;48953;53.110;5.592;2022-09-12T15:28:39;6.15;;;5.55;;
62861;SDS011;48953;53.110;5.592;2022-09-12T15:33:41;6.85;;;5.55;;
62861;SDS011;48953;53.110;5.592;2022-09-12T15:36:12;6.72;;;5.75;;
62861;SDS011;48953;53.110;5.592;2022-09-12T15:38:39;6.07;;;5.45;;
62861;SDS011;48953;53.110;5.592;2022-09-12T15:41:12;5.50;;;4.88;;
62861;SDS011;48953;53.110;5.592;2022-09-12T15:43:41;5.85;;;4.95;;
62861;SDS011;48953;53.110;5.592;2022-09-12T15:46:08;6.47;;;5.30;;
62861;SDS011;48953;53.110;5.592;2022-09-12T15:48:35;7.25;;;5.43;;
62861;SDS011;48953;53.110;5.592;2022-09-12T15:51:01;6.88;;;5.28;;
62861;SDS011;48953;53.110;5.592;2022-09-12T15:53:29;6.35;;;5.65;;
62861;SDS011;48953;53.110;5.592;2022-09-12T15:55:55;5.55;;;4.97;;
62861;SDS011;48953;53.110;5.592;2022-09-12T15:58:20;7.10;;;6.20;;
62861;SDS011;48953;53.110;5.592;2022-09-12T16:00:46;6.07;;;5.40;;
62861;SDS011;48953;53.110;5.592;2022-09-12T16:03:18;5.22;;;4.72;;
62861;SDS011;48953;53.110;5.592;2022-09-12T16:05:59;7.38;;;5.10;;
62861;SDS011;48953;53.110;5.592;2022-09-12T16:08:26;6.07;;;4.78;;
62861;SDS011;48953;53.110;5.592;2022-09-12T16:10:56;5.80;;;4.77;;
62861;SDS011;48953;53.110;5.592;2022-09-12T16:13:23;6.57;;;4.47;;
62861;SDS011;48953;53.110;5.592;2022-09-12T16:15:49;5.38;;;4.35;;
62861;SDS011;48953;53.110;5.592;2022-09-12T16:18:15;5.43;;;4.45;;
62861;SDS011;48953;53.110;5.592;2022-09-12T16:20:41;12.88;;;4.95;;
62861;SDS011;48953;53.110;5.592;2022-09-12T16:23:10;6.90;;;5.45;;
62861;SDS011;48953;53.110;5.592;2022-09-12T16:25:37;5.72;;;5.00;;
62861;SDS011;48953;53.110;5.592;2022-09-12T16:28:06;7.28;;;5.32;;
62861;SDS011;48953;53.110;5.592;2022-09-12T16:30:32;8.05;;;5.18;;
62861;SDS011;48953;53.110;5.592;2022-09-12T16:32:58;8.02;;;5.32;;
62861;SDS011;48953;53.110;5.592;2022-09-12T16:35:24;6.30;;;5.70;;
62861;SDS011;48953;53.110;5.592;2022-09-12T16:37:50;6.47;;;5.75;;
62861;SDS011;48953;53.110;5.592;2022-09-12T16:40:16;7.90;;;5.35;;
62861;SDS011;48953;53.110;5.592;2022-09-12T16:42:43;8.80;;;5.68;;
62861;SDS011;48953;53.110;5.592;2022-09-12T16:45:09;9.77;;;6.10;;
62861;SDS011;48953;53.110;5.592;2022-09-12T16:47:36;7.13;;;5.60;;
62861;SDS011;48953;53.110;5.592;2022-09-12T16:50:01;6.43;;;5.30;;
62861;SDS011;48953;53.110;5.592;2022-09-12T16:52:27;5.90;;;5.30;;
62861;SDS011;48953;53.110;5.592;2022-09-12T16:54:53;6.57;;;5.97;;
62861;SDS011;48953;53.110;5.592;2022-09-12T16:57:18;7.53;;;5.65;;
62861;SDS011;48953;53.110;5.592;2022-09-12T16:59:44;6.80;;;5.50;;
62861;SDS011;48953;53.110;5.592;2022-09-12T17:02:10;8.40;;;6.38;;
62861;SDS011;48953;53.110;5.592;2022-09-12T17:04:37;9.05;;;6.00;;
62861;SDS011;48953;53.110;5.592;2022-09-12T17:07:03;7.50;;;5.47;;
62861;SDS011;48953;53.110;5.592;2022-09-12T17:09:28;6.38;;;5.20;;
62861;SDS011;48953;53.110;5.592;2022-09-12T17:11:54;6.82;;;5.55;;
62861;SDS011;48953;53.110;5.592;2022-09-12T17:14:20;8.30;;;5.25;;
62861;SDS011;48953;53.110;5.592;2022-09-12T17:16:46;6.28;;;4.68;;
62861;SDS011;48953;53.110;5.592;2022-09-12T17:19:29;5.10;;;4.40;;
62861;SDS011;48953;53.110;5.592;2022-09-12T17:21:56;5.32;;;4.47;;
62861;SDS011;48953;53.110;5.592;2022-09-12T17:24:22;7.40;;;4.95;;
62861;SDS011;48953;53.110;5.592;2022-09-12T17:26:49;6.05;;;4.20;;
62861;SDS011;48953;53.110;5.592;2022-09-12T17:29:15;5.15;;;4.45;;
62861;SDS011;48953;53.110;5.592;2022-09-12T17:31:41;7.78;;;4.05;;